createdAt,value
2018-02-04T00:01:06.917Z,61.10
2018-02-04T00:03:34.505Z,61.00
2018-02-04T00:06:01.995Z,62.60
2018-02-04T00:08:29.519Z,62.90
2018-02-04T00:10:57.019Z,62.60
2018-02-04T00:13:24.837Z,62.50
2018-02-04T00:15:53.132Z,63.40
2018-02-04T00:18:20.649Z,62.70
2018-02-04T00:20:48.174Z,62.90
2018-02-04T00:23:16.043Z,62.30
2018-02-04T00:25:43.564Z,62.30
2018-02-04T00:28:11.899Z,62.20
2018-02-04T00:30:39.454Z,61.40
2018-02-04T00:33:06.996Z,61.10
2018-02-04T00:35:34.494Z,60.90
2018-02-04T00:38:02.084Z,61.20
2018-02-04T00:40:29.629Z,61.30
2018-02-04T00:42:57.471Z,61.20
2018-02-04T00:45:25.028Z,60.60
2018-02-04T00:47:52.962Z,60.60
2018-02-04T00:50:22.001Z,60.00
2018-02-04T00:52:49.526Z,59.90
2018-02-04T00:55:17.328Z,60.20
2018-02-04T00:57:45.717Z,60.50
2018-02-04T01:00:13.268Z,61.40
2018-02-04T01:02:41.602Z,61.80
2018-02-04T01:05:09.312Z,61.90
2018-02-04T01:07:37.607Z,62.70
2018-02-04T01:10:05.099Z,62.70
2018-02-04T01:12:32.618Z,62.60
2018-02-04T01:15:01.137Z,62.60
2018-02-04T01:17:29.345Z,62.60
2018-02-04T01:19:56.867Z,62.10
2018-02-04T01:22:24.398Z,61.80
2018-02-04T01:24:52.091Z,61.40
2018-02-04T01:27:20.496Z,63.30
2018-02-04T01:29:47.986Z,63.30
2018-02-04T01:32:15.531Z,63.90
2018-02-04T01:34:43.125Z,64.30
2018-02-04T01:37:11.535Z,64.50
2018-02-04T01:39:39.811Z,64.40
2018-02-04T01:42:07.378Z,64.20
2018-02-04T01:44:34.918Z,63.60
2018-02-04T01:47:02.422Z,64.10
2018-02-04T01:49:30.757Z,63.70
2018-02-04T01:51:58.477Z,63.70
2018-02-04T01:54:25.971Z,63.10
2018-02-04T01:56:53.478Z,62.70
2018-02-04T01:59:22.551Z,63.40
2018-02-04T02:01:50.065Z,63.00
2018-02-04T02:04:17.589Z,63.00
2018-02-04T02:06:45.132Z,63.10
2018-02-04T02:09:12.687Z,63.20
2018-02-04T02:11:40.373Z,63.20
2018-02-04T02:14:07.943Z,62.20
2018-02-04T02:16:35.448Z,62.30
2018-02-04T02:19:02.985Z,62.00
2018-02-04T02:21:30.526Z,61.50
2018-02-04T02:23:58.031Z,62.50
2018-02-04T02:26:26.297Z,62.70
2018-02-04T02:28:53.819Z,62.70
2018-02-04T02:31:21.423Z,61.90
2018-02-04T02:33:48.942Z,60.20
2018-02-04T02:36:17.236Z,59.90
2018-02-04T02:38:44.741Z,59.50
2018-02-04T02:41:13.041Z,58.90
2018-02-04T02:43:40.554Z,58.90
2018-02-04T02:46:08.086Z,58.70
2018-02-04T02:48:35.616Z,58.60
2018-02-04T02:51:03.903Z,59.00
2018-02-04T02:53:32.258Z,59.20
2018-02-04T02:55:59.808Z,59.20
2018-02-04T02:58:27.324Z,59.50
2018-02-04T03:00:55.014Z,59.70
2018-02-04T03:03:23.487Z,60.00
2018-02-04T03:05:51.030Z,60.00
2018-02-04T03:08:19.309Z,58.80
2018-02-04T03:10:47.606Z,58.90
2018-02-04T03:13:15.111Z,58.90
2018-02-04T03:15:42.736Z,58.90
2018-02-04T03:18:10.297Z,58.90
2018-02-04T03:20:37.822Z,59.20
2018-02-04T03:23:05.408Z,59.50
2018-02-04T03:25:33.678Z,60.40
2018-02-04T03:28:01.180Z,60.40
2018-02-04T03:30:28.707Z,60.80
2018-02-04T03:32:56.247Z,61.20
2018-02-04T03:35:23.744Z,61.90
2018-02-04T03:37:52.017Z,62.40
2018-02-04T03:40:20.284Z,62.60
2018-02-04T03:42:47.792Z,62.60
2018-02-04T03:45:15.319Z,62.70
2018-02-04T03:47:43.593Z,63.40
2018-02-04T03:50:11.105Z,63.40
2018-02-04T03:52:38.607Z,63.90
2018-02-04T03:55:07.630Z,64.50
2018-02-04T03:57:35.880Z,64.50
2018-02-04T04:00:03.414Z,64.50
2018-02-04T04:02:30.929Z,64.60
2018-02-04T04:04:59.215Z,65.20
2018-02-04T04:07:27.568Z,65.40
2018-02-04T04:09:55.069Z,65.40
2018-02-04T04:12:23.366Z,65.50
2018-02-04T04:14:50.844Z,65.50
2018-02-04T04:17:18.360Z,65.60
2018-02-04T04:19:45.858Z,65.50
2018-02-04T04:22:13.356Z,65.80
2018-02-04T04:24:40.957Z,66.20
2018-02-04T04:27:09.257Z,66.60
2018-02-04T04:29:37.540Z,66.70
2018-02-04T04:32:05.068Z,66.70
2018-02-04T04:34:32.572Z,67.00
2018-02-04T04:37:00.874Z,67.30
2018-02-04T04:39:28.405Z,67.30
2018-02-04T04:41:56.702Z,67.50
2018-02-04T04:44:24.242Z,67.50
2018-02-04T04:46:52.511Z,68.00
2018-02-04T04:49:20.015Z,68.00
2018-02-04T04:51:47.541Z,68.10
2018-02-04T04:54:15.065Z,68.30
2018-02-04T04:56:42.601Z,68.40
2018-02-04T04:59:10.115Z,68.60
2018-02-04T05:01:37.652Z,68.80
2018-02-04T05:04:05.167Z,68.80
2018-02-04T05:06:33.457Z,68.80
2018-02-04T05:09:01.839Z,68.70
2018-02-04T05:11:30.147Z,68.80
2018-02-04T05:13:57.663Z,68.80
2018-02-04T05:16:25.236Z,68.80
2018-02-04T05:18:52.783Z,69.00
2018-02-04T05:21:20.341Z,69.00
2018-02-04T05:23:47.836Z,69.00
2018-02-04T05:26:16.225Z,69.10
2018-02-04T05:28:44.520Z,69.20
2018-02-04T05:31:12.080Z,69.30
2018-02-04T05:33:39.603Z,69.50
2018-02-04T05:36:07.876Z,69.70
2018-02-04T05:38:35.402Z,69.70
2018-02-04T05:41:02.947Z,69.80
2018-02-04T05:43:30.461Z,69.90
2018-02-04T05:45:57.983Z,70.00
2018-02-04T05:48:25.506Z,69.90
2018-02-04T05:50:53.037Z,70.00
2018-02-04T05:53:20.560Z,70.00
2018-02-04T05:55:48.833Z,70.00
2018-02-04T05:58:17.149Z,70.20
2018-02-04T06:00:44.670Z,70.10
2018-02-04T06:03:12.949Z,70.40
2018-02-04T06:05:41.229Z,70.50
2018-02-04T06:08:08.772Z,70.40
2018-02-04T06:10:36.295Z,70.60
2018-02-04T06:13:03.871Z,70.30
2018-02-04T06:15:31.385Z,69.60
2018-02-04T06:17:58.911Z,69.80
2018-02-04T06:20:26.413Z,70.10
2018-02-04T06:22:54.709Z,70.80
2018-02-04T06:25:23.014Z,71.20
2018-02-04T06:27:50.546Z,71.10
2018-02-04T06:30:18.833Z,70.10
2018-02-04T06:32:47.139Z,69.90
2018-02-04T06:35:14.681Z,69.90
2018-02-04T06:37:42.970Z,70.50
2018-02-04T06:40:10.494Z,70.50
2018-02-04T06:42:38.022Z,70.80
2018-02-04T06:45:05.513Z,70.30
2018-02-04T06:47:33.058Z,70.10
2018-02-04T06:50:00.570Z,69.90
2018-02-04T06:52:28.864Z,69.40
2018-02-04T06:54:56.413Z,69.40
2018-02-04T06:57:24.701Z,69.80
2018-02-04T06:59:52.988Z,69.50
2018-02-04T07:02:21.272Z,69.50
2018-02-04T07:04:48.787Z,69.40
2018-02-04T07:07:16.325Z,69.50
2018-02-04T07:09:43.875Z,69.70
2018-02-04T07:12:11.539Z,69.60
2018-02-04T07:14:39.063Z,69.70
2018-02-04T07:17:06.581Z,69.30
2018-02-04T07:19:34.119Z,70.20
2018-02-04T07:22:02.430Z,69.80
2018-02-04T07:24:29.970Z,69.80
2018-02-04T07:26:57.498Z,69.40
2018-02-04T07:29:25.059Z,69.00
2018-02-04T07:31:52.618Z,69.10
2018-02-04T07:34:20.139Z,69.00
2018-02-04T07:36:47.688Z,68.90
2018-02-04T07:39:15.223Z,68.80
2018-02-04T07:41:42.750Z,68.60
2018-02-04T07:44:10.272Z,69.20
2018-02-04T07:46:38.559Z,68.60
2018-02-04T07:49:06.115Z,68.60
2018-02-04T07:51:34.424Z,68.50
2018-02-04T07:54:01.916Z,68.50
2018-02-04T07:56:29.455Z,68.40
2018-02-04T07:58:56.966Z,68.50
2018-02-04T08:01:24.492Z,68.40
2018-02-04T08:03:52.014Z,68.40
2018-02-04T08:06:20.340Z,68.30
2018-02-04T08:08:47.849Z,68.30
2018-02-04T08:11:16.162Z,67.40
2018-02-04T08:13:43.730Z,67.30
2018-02-04T08:16:11.318Z,66.80
2018-02-04T08:18:38.890Z,66.70
2018-02-04T08:21:06.501Z,66.40
2018-02-04T08:23:34.775Z,65.90
2018-02-04T08:26:03.050Z,65.90
2018-02-04T08:28:31.328Z,65.20
2018-02-04T08:30:58.846Z,65.10
2018-02-04T08:33:26.349Z,65.00
2018-02-04T08:35:54.670Z,63.90
2018-02-04T08:38:22.206Z,64.30
2018-02-04T08:40:49.754Z,63.70
2018-02-04T08:43:18.151Z,63.50
2018-02-04T08:45:46.434Z,63.30
2018-02-04T08:48:14.722Z,63.10
2018-02-04T08:50:43.047Z,63.10
2018-02-04T08:53:10.584Z,63.20
2018-02-04T08:55:38.133Z,63.40
2018-02-04T08:58:06.419Z,63.00
2018-02-04T09:00:33.985Z,62.90
2018-02-04T09:03:01.815Z,61.80
2018-02-04T09:05:29.357Z,61.70
2018-02-04T09:07:56.885Z,61.40
2018-02-04T09:10:24.426Z,61.00
2018-02-04T09:12:52.752Z,61.00
2018-02-04T09:15:20.309Z,61.00
2018-02-04T09:17:47.830Z,60.90
2018-02-04T09:20:16.644Z,60.90
2018-02-04T09:22:44.986Z,60.50
2018-02-04T09:25:13.291Z,60.20
2018-02-04T09:27:40.867Z,60.20
2018-02-04T09:30:09.152Z,60.20
2018-02-04T09:32:37.449Z,60.50
2018-02-04T09:35:04.959Z,60.50
2018-02-04T09:37:32.516Z,60.60
2018-02-04T09:40:00.025Z,60.40
2018-02-04T09:42:27.565Z,60.20
2018-02-04T09:44:55.208Z,59.50
2018-02-04T09:47:22.743Z,59.80
2018-02-04T09:49:50.315Z,59.90
2018-02-04T09:52:18.647Z,59.20
2018-02-04T09:54:46.180Z,58.50
2018-02-04T09:57:13.742Z,57.80
2018-02-04T09:59:41.336Z,57.60
2018-02-04T10:02:09.694Z,57.20
2018-02-04T10:04:37.224Z,57.20
2018-02-04T10:07:04.738Z,56.90
2018-02-04T10:09:32.319Z,57.00
2018-02-04T10:12:00.695Z,56.70
2018-02-04T10:14:29.003Z,56.50
2018-02-04T10:16:56.537Z,56.50
2018-02-04T10:19:24.092Z,56.80
2018-02-04T10:21:51.627Z,57.00
2018-02-04T10:24:19.178Z,56.90
2018-02-04T10:26:46.705Z,57.40
2018-02-04T10:29:15.219Z,56.50
2018-02-04T10:31:42.774Z,56.50
2018-02-04T10:34:10.356Z,56.70
2018-02-04T10:36:37.906Z,56.50
2018-02-04T10:39:05.435Z,56.40
2018-02-04T10:41:33.021Z,56.50
2018-02-04T10:44:01.318Z,56.20
2018-02-04T10:46:29.077Z,56.20
2018-02-04T10:48:56.706Z,56.10
2018-02-04T10:51:29.834Z,55.60
2018-02-04T10:53:57.374Z,55.50
2018-02-04T10:56:25.662Z,56.20
2018-02-04T10:58:53.960Z,55.70
2018-02-04T11:01:21.478Z,55.70
2018-02-04T11:03:49.068Z,56.20
2018-02-04T11:06:17.354Z,56.50
2018-02-04T11:08:45.685Z,55.40
2018-02-04T11:11:13.216Z,55.40
2018-02-04T11:13:40.841Z,55.00
2018-02-04T11:16:08.441Z,54.80
2018-02-04T11:18:36.243Z,55.00
2018-02-04T11:21:03.808Z,54.80
2018-02-04T11:23:31.306Z,54.90
2018-02-04T11:25:59.642Z,55.10
2018-02-04T11:28:27.158Z,55.10
2018-02-04T11:30:54.742Z,54.70
2018-02-04T11:33:22.341Z,55.90
2018-02-04T11:35:49.857Z,55.40
2018-02-04T11:38:17.429Z,55.20
2018-02-04T11:40:45.799Z,54.70
2018-02-04T11:43:13.353Z,54.60
2018-02-04T11:45:40.935Z,54.60
2018-02-04T11:48:09.250Z,55.70
2018-02-04T11:50:36.802Z,55.60
2018-02-04T11:53:04.324Z,55.70
2018-02-04T11:55:31.879Z,56.00
2018-02-04T11:57:59.410Z,55.90
2018-02-04T12:00:26.992Z,55.70
2018-02-04T12:02:54.643Z,55.20
2018-02-04T12:05:22.310Z,54.70
2018-02-04T12:07:49.850Z,54.60
2018-02-04T12:10:18.256Z,53.90
2018-02-04T12:12:45.805Z,53.90
2018-02-04T12:15:13.388Z,54.00
2018-02-04T12:17:40.968Z,54.20
2018-02-04T12:20:08.561Z,53.20
2018-02-04T12:22:36.118Z,52.90
2018-02-04T12:25:03.682Z,52.30
2018-02-04T12:27:31.246Z,50.60
2018-02-04T12:29:58.834Z,50.40
2018-02-04T12:32:26.355Z,50.70
2018-02-04T12:34:53.887Z,50.40
2018-02-04T12:37:21.447Z,50.30
2018-02-04T12:39:49.786Z,49.80
2018-02-04T12:42:17.398Z,49.80
2018-02-04T12:44:44.949Z,49.10
2018-02-04T12:47:13.276Z,49.50
2018-02-04T12:49:40.820Z,49.50
2018-02-04T12:52:08.365Z,48.50
2018-02-04T12:54:36.681Z,51.60
2018-02-04T12:57:04.232Z,51.60
2018-02-04T12:59:31.753Z,51.90
2018-02-04T13:01:59.491Z,52.30
2018-02-04T13:04:27.042Z,51.90
2018-02-04T13:06:54.569Z,52.80
2018-02-04T13:09:22.880Z,54.00
2018-02-04T13:11:50.434Z,54.00
2018-02-04T13:14:17.964Z,54.30
2018-02-04T13:16:45.524Z,54.60
2018-02-04T13:19:13.125Z,54.90
2018-02-04T13:21:40.714Z,54.80
2018-02-04T13:24:08.278Z,55.00
2018-02-04T13:26:35.870Z,54.90
2018-02-04T13:29:03.397Z,55.10
2018-02-04T13:31:30.928Z,54.60
2018-02-04T13:33:59.249Z,55.40
2018-02-04T13:36:26.779Z,55.40
2018-02-04T13:38:54.303Z,55.90
2018-02-04T13:41:22.490Z,56.30
2018-02-04T13:43:52.503Z,56.90
2018-02-04T13:46:20.075Z,57.70
2018-02-04T13:48:47.684Z,58.20
2018-02-04T13:51:15.227Z,58.30
2018-02-04T13:53:42.821Z,58.90
2018-02-04T13:56:10.337Z,59.30
2018-02-04T13:58:37.862Z,59.50
2018-02-04T14:01:05.433Z,59.80
2018-02-04T14:03:33.041Z,60.00
2018-02-04T14:06:01.329Z,60.00
2018-02-04T14:08:29.622Z,60.40
2018-02-04T14:10:57.167Z,60.30
2018-02-04T14:13:25.465Z,61.30
2018-02-04T14:15:53.777Z,61.30
2018-02-04T14:18:21.307Z,61.30
2018-02-04T14:20:49.599Z,61.90
2018-02-04T14:23:17.271Z,61.90
2018-02-04T14:25:44.899Z,62.40
2018-02-04T14:28:12.430Z,62.70
2018-02-04T14:30:39.955Z,63.10
2018-02-04T14:33:07.459Z,63.50
2018-02-04T14:35:35.076Z,64.20
2018-02-04T14:38:02.657Z,64.80
2018-02-04T14:40:30.147Z,65.00
2018-02-04T14:42:57.673Z,64.90
2018-02-04T14:45:25.988Z,64.80
2018-02-04T14:47:53.544Z,64.80
2018-02-04T14:50:21.042Z,65.00
2018-02-04T14:52:48.622Z,65.60
2018-02-04T14:55:16.129Z,66.00
2018-02-04T14:57:43.673Z,66.10
2018-02-04T15:00:12.160Z,66.60
2018-02-04T15:02:39.657Z,66.60
2018-02-04T15:05:07.147Z,66.40
2018-02-04T15:07:34.644Z,67.00
2018-02-04T15:10:02.156Z,67.20
2018-02-04T15:12:29.642Z,67.50
2018-02-04T15:14:57.921Z,68.50
2018-02-04T15:17:25.459Z,69.90
2018-02-04T15:19:52.981Z,69.60
2018-02-04T15:22:21.249Z,70.50
2018-02-04T15:24:49.520Z,70.40
2018-02-04T15:27:17.796Z,70.10
2018-02-04T15:29:46.078Z,70.30
2018-02-04T15:32:13.560Z,70.30
2018-02-04T15:34:41.096Z,70.50
2018-02-04T15:37:08.871Z,70.70
2018-02-04T15:39:36.423Z,71.20
2018-02-04T15:42:03.948Z,71.50
2018-02-04T15:44:31.468Z,72.10
2018-02-04T15:47:00.571Z,72.50
2018-02-04T15:49:28.149Z,73.20
2018-02-04T15:51:56.435Z,72.70
2018-02-04T15:54:24.070Z,72.70
2018-02-04T15:56:51.583Z,72.40
2018-02-04T15:59:19.210Z,72.90
2018-02-04T16:01:46.789Z,73.00
2018-02-04T16:04:15.097Z,74.00
2018-02-04T16:06:42.655Z,74.00
2018-02-04T16:09:10.216Z,74.80
2018-02-04T16:11:37.719Z,75.10
2018-02-04T16:14:05.280Z,75.40
2018-02-04T16:16:32.768Z,75.60
2018-02-04T16:19:01.082Z,75.90
2018-02-04T16:21:28.562Z,75.40
2018-02-04T16:23:56.173Z,75.90
2018-02-04T16:26:23.680Z,75.00
2018-02-04T16:28:51.292Z,75.40
2018-02-04T16:31:18.787Z,75.00
2018-02-04T16:33:47.156Z,75.30
2018-02-04T16:36:14.660Z,75.30
2018-02-04T16:38:42.276Z,74.90
2018-02-04T16:41:11.164Z,74.90
2018-02-04T16:43:38.968Z,74.90
2018-02-04T16:46:07.314Z,75.00
2018-02-04T16:48:34.835Z,75.00
2018-02-04T16:51:02.367Z,75.30
2018-02-04T16:53:30.621Z,75.40
2018-02-04T16:55:58.365Z,75.40
2018-02-04T16:58:25.853Z,75.70
2018-02-04T17:00:54.165Z,76.70
2018-02-04T17:03:22.443Z,75.70
2018-02-04T17:05:50.751Z,75.50
2018-02-04T17:08:18.275Z,75.40
2018-02-04T17:10:45.765Z,76.00
2018-02-04T17:13:14.024Z,76.30
2018-02-04T17:15:42.299Z,76.10
2018-02-04T17:18:09.814Z,76.10
2018-02-04T17:20:37.334Z,76.50
2018-02-04T17:23:04.822Z,76.70
2018-02-04T17:25:32.593Z,76.30
2018-02-04T17:28:00.116Z,76.00
2018-02-04T17:30:27.676Z,76.10
2018-02-04T17:32:55.976Z,76.30
2018-02-04T17:35:24.252Z,76.80
2018-02-04T17:37:51.748Z,76.20
2018-02-04T17:40:19.280Z,76.30
2018-02-04T17:42:46.784Z,76.20
2018-02-04T17:45:14.292Z,76.20
2018-02-04T17:47:41.788Z,76.60
2018-02-04T17:50:10.196Z,76.70
2018-02-04T17:52:37.682Z,76.70
2018-02-04T17:55:05.216Z,77.00
2018-02-04T17:57:32.773Z,77.10
2018-02-04T18:00:00.476Z,77.30
2018-02-04T18:02:27.998Z,77.30
2018-02-04T18:04:56.271Z,77.10
2018-02-04T18:07:24.525Z,77.00
2018-02-04T18:09:52.144Z,77.00
2018-02-04T18:12:19.700Z,77.30
2018-02-04T18:14:47.231Z,77.10
2018-02-04T18:17:15.535Z,77.30
2018-02-04T18:19:43.069Z,77.20
2018-02-04T18:22:10.576Z,77.00
2018-02-04T18:24:38.166Z,77.00
2018-02-04T18:27:05.771Z,77.10
2018-02-04T18:29:34.077Z,78.00
2018-02-04T18:32:01.678Z,77.90
2018-02-04T18:34:29.362Z,78.20
2018-02-04T18:36:56.932Z,78.90
2018-02-04T18:39:24.428Z,78.80
2018-02-04T18:41:52.730Z,79.80
2018-02-04T18:44:20.285Z,79.70
2018-02-04T18:46:47.817Z,79.00
2018-02-04T18:49:16.225Z,78.90
2018-02-04T18:51:43.741Z,79.60
2018-02-04T18:54:11.592Z,79.00
2018-02-04T18:56:39.115Z,79.00
2018-02-04T18:59:07.389Z,81.30
2018-02-04T19:01:35.712Z,81.90
2018-02-04T19:04:03.994Z,81.80
2018-02-04T19:06:31.862Z,81.70
2018-02-04T19:08:59.367Z,81.60
2018-02-04T19:11:26.888Z,82.00
2018-02-04T19:13:54.411Z,82.70
2018-02-04T19:16:22.756Z,82.20
2018-02-04T19:18:50.246Z,82.10
2018-02-04T19:21:17.771Z,82.00
2018-02-04T19:23:45.293Z,82.00
2018-02-04T19:26:13.610Z,81.50
2018-02-04T19:28:41.171Z,81.50
2018-02-04T19:31:09.059Z,81.40
2018-02-04T19:33:36.620Z,81.00
2018-02-04T19:36:04.144Z,80.90
2018-02-04T19:38:31.732Z,80.80
2018-02-04T19:40:59.373Z,80.90
2018-02-04T19:43:27.683Z,80.80
2018-02-04T19:45:55.199Z,80.70
2018-02-04T19:48:23.486Z,80.80
2018-02-04T19:50:51.752Z,80.80
2018-02-04T19:53:20.046Z,80.80
2018-02-04T19:55:48.302Z,80.30
2018-02-04T19:58:15.862Z,80.30
2018-02-04T20:00:43.436Z,80.50
2018-02-04T20:03:11.721Z,80.50
2018-02-04T20:05:39.243Z,80.60
2018-02-04T20:08:08.840Z,80.70
2018-02-04T20:10:36.357Z,80.70
2018-02-04T20:13:03.951Z,80.70
2018-02-04T20:15:31.536Z,81.40
2018-02-04T20:17:59.357Z,80.70
2018-02-04T20:20:26.937Z,80.50
2018-02-04T20:22:55.296Z,80.90
2018-02-04T20:25:22.793Z,80.90
2018-02-04T20:27:51.055Z,81.20
2018-02-04T20:30:18.592Z,81.20
2018-02-04T20:32:58.121Z,81.30
2018-02-04T20:35:25.643Z,81.40
2018-02-04T20:37:53.920Z,81.50
2018-02-04T20:40:22.188Z,81.10
2018-02-04T20:42:50.479Z,81.20
2018-02-04T20:45:18.749Z,81.00
2018-02-04T20:47:46.275Z,81.00
2018-02-04T20:50:13.798Z,81.10
2018-02-04T20:52:41.322Z,81.30
2018-02-04T20:55:08.829Z,81.20
2018-02-04T20:57:36.340Z,81.10
2018-02-04T21:00:03.869Z,81.20
2018-02-04T21:02:32.488Z,81.50
2018-02-04T21:04:59.977Z,81.30
2018-02-04T21:07:27.511Z,81.50
2018-02-04T21:09:55.064Z,81.70
2018-02-04T21:12:22.549Z,81.80
2018-02-04T21:14:50.144Z,82.00
2018-02-04T21:17:18.595Z,82.30
2018-02-04T21:19:46.114Z,82.20
2018-02-04T21:22:13.632Z,82.40
2018-02-04T21:24:42.012Z,82.70
2018-02-04T21:27:09.507Z,82.60
2018-02-04T21:29:37.820Z,82.80
2018-02-04T21:32:05.335Z,82.80
2018-02-04T21:34:33.619Z,83.70
2018-02-04T21:37:01.901Z,83.30
2018-02-04T21:39:30.315Z,83.40
2018-02-04T21:41:57.870Z,83.30
2018-02-04T21:44:25.394Z,83.40
2018-02-04T21:46:52.923Z,83.60
2018-02-04T21:49:20.412Z,83.50
2018-02-04T21:51:48.011Z,83.40
2018-02-04T21:54:16.274Z,83.40
2018-02-04T21:56:43.938Z,83.30
2018-02-04T21:59:11.547Z,83.40
2018-02-04T22:01:39.068Z,83.50
2018-02-04T22:04:06.603Z,83.50
2018-02-04T22:06:34.145Z,83.40
2018-02-04T22:09:01.669Z,83.20
2018-02-04T22:11:29.950Z,83.20
2018-02-04T22:13:58.084Z,83.20
2018-02-04T22:16:25.563Z,83.20
2018-02-04T22:18:53.056Z,83.20
2018-02-04T22:21:21.310Z,82.90
2018-02-04T22:23:48.829Z,82.80
2018-02-04T22:26:16.337Z,82.80
2018-02-04T22:28:43.838Z,82.60
2018-02-04T22:31:12.211Z,82.40
2018-02-04T22:33:40.522Z,82.20
2018-02-04T22:36:08.028Z,82.00
2018-02-04T22:38:35.497Z,82.10
2018-02-04T22:41:03.006Z,82.00
2018-02-04T22:43:30.528Z,81.90
2018-02-04T22:45:59.107Z,82.00
2018-02-04T22:48:26.634Z,82.10
2018-02-04T22:50:54.231Z,81.90
2018-02-04T22:53:21.760Z,81.80
2018-02-04T22:55:49.729Z,81.70
2018-02-04T22:58:17.262Z,81.40
2018-02-04T23:00:45.715Z,80.90
2018-02-04T23:03:13.232Z,80.90
2018-02-04T23:05:40.796Z,80.80
2018-02-04T23:08:08.309Z,80.90
2018-02-04T23:10:35.838Z,81.10
2018-02-04T23:13:03.380Z,81.00
2018-02-04T23:15:31.025Z,80.80
2018-02-04T23:17:59.337Z,80.70
2018-02-04T23:20:26.896Z,80.60
2018-02-04T23:22:54.421Z,80.70
2018-02-04T23:25:22.734Z,81.30
2018-02-04T23:27:51.078Z,81.10
2018-02-04T23:30:18.682Z,81.10
2018-02-04T23:32:46.191Z,81.40
2018-02-04T23:35:13.693Z,81.60
2018-02-04T23:37:41.250Z,82.10
2018-02-04T23:40:08.768Z,82.00
2018-02-04T23:42:36.609Z,81.70
2018-02-04T23:45:04.880Z,82.40
2018-02-04T23:47:33.164Z,82.40
2018-02-04T23:50:01.443Z,82.60
2018-02-04T23:52:29.718Z,82.40
2018-02-04T23:54:57.993Z,82.20
2018-02-04T23:57:25.495Z,82.20
2018-02-04T23:59:52.996Z,82.10
